sensor_id;sensor_type;location;lat;lon;timestamp;temperature;humidity
15394;DHT22;7795;47.986;11.868;2022-10-03T00:03:58;15.10;85.50
15394;DHT22;7795;47.986;11.868;2022-10-03T00:06:37;15.10;85.30
15394;DHT22;7795;47.986;11.868;2022-10-03T00:09:24;15.10;85.50
15394;DHT22;7795;47.986;11.868;2022-10-03T00:11:58;15.10;85.50
15394;DHT22;7795;47.986;11.868;2022-10-03T00:14:34;15.10;85.30
15394;DHT22;7795;47.986;11.868;2022-10-03T00:17:08;15.10;85.40
15394;DHT22;7795;47.986;11.868;2022-10-03T00:19:39;15.10;85.40
15394;DHT22;7795;47.986;11.868;2022-10-03T00:22:18;15.10;86.20
15394;DHT22;7795;47.986;11.868;2022-10-03T00:24:55;15.00;85.40
15394;DHT22;7795;47.986;11.868;2022-10-03T00:27:30;15.00;85.30
15394;DHT22;7795;47.986;11.868;2022-10-03T00:30:10;15.00;85.20
15394;DHT22;7795;47.986;11.868;2022-10-03T00:35:49;15.00;85.10
15394;DHT22;7795;47.986;11.868;2022-10-03T00:38:38;15.00;85.20
15394;DHT22;7795;47.986;11.868;2022-10-03T00:41:22;15.00;85.20
15394;DHT22;7795;47.986;11.868;2022-10-03T00:47:22;14.90;85.00
15394;DHT22;7795;47.986;11.868;2022-10-03T00:50:08;14.90;84.90
15394;DHT22;7795;47.986;11.868;2022-10-03T00:52:47;14.80;84.80
15394;DHT22;7795;47.986;11.868;2022-10-03T00:55:22;14.80;85.20
15394;DHT22;7795;47.986;11.868;2022-10-03T01:00:49;14.70;84.90
15394;DHT22;7795;47.986;11.868;2022-10-03T01:03:28;14.70;84.90
15394;DHT22;7795;47.986;11.868;2022-10-03T01:06:20;14.60;85.00
15394;DHT22;7795;47.986;11.868;2022-10-03T01:09:08;14.60;85.20
15394;DHT22;7795;47.986;11.868;2022-10-03T01:11:48;14.60;85.30
15394;DHT22;7795;47.986;11.868;2022-10-03T01:14:30;14.60;85.20
15394;DHT22;7795;47.986;11.868;2022-10-03T01:17:10;14.50;85.20
15394;DHT22;7795;47.986;11.868;2022-10-03T01:20:02;14.50;85.10
15394;DHT22;7795;47.986;11.868;2022-10-03T01:23:01;14.50;85.20
15394;DHT22;7795;47.986;11.868;2022-10-03T01:25:38;14.50;85.20
15394;DHT22;7795;47.986;11.868;2022-10-03T01:28:21;14.40;85.10
15394;DHT22;7795;47.986;11.868;2022-10-03T01:31:15;14.40;85.20
15394;DHT22;7795;47.986;11.868;2022-10-03T01:33:46;14.40;85.90
15394;DHT22;7795;47.986;11.868;2022-10-03T01:36:19;14.40;85.20
15394;DHT22;7795;47.986;11.868;2022-10-03T01:38:54;14.30;85.20
15394;DHT22;7795;47.986;11.868;2022-10-03T01:41:27;14.30;85.10
15394;DHT22;7795;47.986;11.868;2022-10-03T01:44:03;14.30;85.20
15394;DHT22;7795;47.986;11.868;2022-10-03T01:46:37;14.30;85.20
15394;DHT22;7795;47.986;11.868;2022-10-03T01:49:09;14.20;85.10
15394;DHT22;7795;47.986;11.868;2022-10-03T01:51:46;14.20;85.20
15394;DHT22;7795;47.986;11.868;2022-10-03T01:54:19;14.20;85.20
15394;DHT22;7795;47.986;11.868;2022-10-03T01:56:54;14.10;85.20
15394;DHT22;7795;47.986;11.868;2022-10-03T01:59:32;14.10;85.30
15394;DHT22;7795;47.986;11.868;2022-10-03T02:02:06;14.10;85.30
15394;DHT22;7795;47.986;11.868;2022-10-03T02:04:40;14.10;85.30
15394;DHT22;7795;47.986;11.868;2022-10-03T02:07:13;14.00;85.40
15394;DHT22;7795;47.986;11.868;2022-10-03T02:09:56;14.00;85.50
15394;DHT22;7795;47.986;11.868;2022-10-03T02:12:28;14.00;85.60
15394;DHT22;7795;47.986;11.868;2022-10-03T02:15:00;13.90;85.60
15394;DHT22;7795;47.986;11.868;2022-10-03T02:17:42;13.90;85.80
15394;DHT22;7795;47.986;11.868;2022-10-03T02:20:20;13.90;86.00
15394;DHT22;7795;47.986;11.868;2022-10-03T02:22:49;13.90;86.10
15394;DHT22;7795;47.986;11.868;2022-10-03T02:25:42;13.80;86.10
15394;DHT22;7795;47.986;11.868;2022-10-03T02:28:44;13.80;86.50
15394;DHT22;7795;47.986;11.868;2022-10-03T02:31:46;13.70;86.40
15394;DHT22;7795;47.986;11.868;2022-10-03T02:34:28;13.70;86.50
15394;DHT22;7795;47.986;11.868;2022-10-03T02:37:18;13.70;86.40
15394;DHT22;7795;47.986;11.868;2022-10-03T02:40:08;13.70;86.60
15394;DHT22;7795;47.986;11.868;2022-10-03T02:42:58;13.70;86.50
15394;DHT22;7795;47.986;11.868;2022-10-03T02:46:03;13.60;86.60
15394;DHT22;7795;47.986;11.868;2022-10-03T02:49:06;13.60;86.70
15394;DHT22;7795;47.986;11.868;2022-10-03T02:54:46;13.60;86.40
15394;DHT22;7795;47.986;11.868;2022-10-03T02:57:40;13.60;86.60
15394;DHT22;7795;47.986;11.868;2022-10-03T03:00:17;13.60;86.50
15394;DHT22;7795;47.986;11.868;2022-10-03T03:06:21;13.60;86.70
15394;DHT22;7795;47.986;11.868;2022-10-03T03:09:15;13.60;86.40
15394;DHT22;7795;47.986;11.868;2022-10-03T03:12:22;13.60;86.30
15394;DHT22;7795;47.986;11.868;2022-10-03T03:15:19;13.60;86.30
15394;DHT22;7795;47.986;11.868;2022-10-03T03:18:05;13.60;86.90
15394;DHT22;7795;47.986;11.868;2022-10-03T03:20:42;13.60;85.90
15394;DHT22;7795;47.986;11.868;2022-10-03T03:26:25;13.50;85.90
15394;DHT22;7795;47.986;11.868;2022-10-03T03:29:01;13.50;85.80
15394;DHT22;7795;47.986;11.868;2022-10-03T03:31:37;13.50;85.80
15394;DHT22;7795;47.986;11.868;2022-10-03T03:34:12;13.50;85.80
15394;DHT22;7795;47.986;11.868;2022-10-03T03:36:50;13.50;85.70
15394;DHT22;7795;47.986;11.868;2022-10-03T03:39:38;13.50;85.70
15394;DHT22;7795;47.986;11.868;2022-10-03T03:42:31;13.40;85.60
15394;DHT22;7795;47.986;11.868;2022-10-03T03:45:20;13.40;85.40
15394;DHT22;7795;47.986;11.868;2022-10-03T03:48:14;13.40;85.40
15394;DHT22;7795;47.986;11.868;2022-10-03T03:50:54;13.30;85.40
15394;DHT22;7795;47.986;11.868;2022-10-03T03:54:01;13.30;85.30
15394;DHT22;7795;47.986;11.868;2022-10-03T03:56:48;13.20;85.30
15394;DHT22;7795;47.986;11.868;2022-10-03T03:59:28;13.20;85.40
15394;DHT22;7795;47.986;11.868;2022-10-03T04:02:12;13.10;85.60
15394;DHT22;7795;47.986;11.868;2022-10-03T04:04:55;13.10;85.40
15394;DHT22;7795;47.986;11.868;2022-10-03T04:07:38;13.10;85.40
15394;DHT22;7795;47.986;11.868;2022-10-03T04:10:35;13.00;85.20
15394;DHT22;7795;47.986;11.868;2022-10-03T04:13:28;13.00;85.00
15394;DHT22;7795;47.986;11.868;2022-10-03T04:16:15;12.90;85.00
15394;DHT22;7795;47.986;11.868;2022-10-03T04:19:07;12.90;84.90
15394;DHT22;7795;47.986;11.868;2022-10-03T04:21:56;12.90;85.00
15394;DHT22;7795;47.986;11.868;2022-10-03T04:27:41;12.80;85.20
15394;DHT22;7795;47.986;11.868;2022-10-03T04:30:12;12.70;85.40
15394;DHT22;7795;47.986;11.868;2022-10-03T04:32:58;12.70;85.50
15394;DHT22;7795;47.986;11.868;2022-10-03T04:35:47;12.70;85.80
15394;DHT22;7795;47.986;11.868;2022-10-03T04:38:22;12.70;86.30
15394;DHT22;7795;47.986;11.868;2022-10-03T04:41:01;12.70;86.40
15394;DHT22;7795;47.986;11.868;2022-10-03T04:43:39;12.70;86.60
15394;DHT22;7795;47.986;11.868;2022-10-03T04:46:22;12.70;86.80
15394;DHT22;7795;47.986;11.868;2022-10-03T04:48:56;12.70;87.00
15394;DHT22;7795;47.986;11.868;2022-10-03T04:51:31;12.80;87.00
15394;DHT22;7795;47.986;11.868;2022-10-03T04:54:04;12.80;87.00
15394;DHT22;7795;47.986;11.868;2022-10-03T04:56:48;12.80;87.00
15394;DHT22;7795;47.986;11.868;2022-10-03T04:59:29;12.90;87.10
15394;DHT22;7795;47.986;11.868;2022-10-03T05:02:03;12.90;87.10
15394;DHT22;7795;47.986;11.868;2022-10-03T05:04:41;12.90;87.00
15394;DHT22;7795;47.986;11.868;2022-10-03T05:07:16;12.90;87.00
15394;DHT22;7795;47.986;11.868;2022-10-03T05:09:51;13.00;87.10
15394;DHT22;7795;47.986;11.868;2022-10-03T05:12:26;13.00;87.00
15394;DHT22;7795;47.986;11.868;2022-10-03T05:15:04;13.00;86.90
15394;DHT22;7795;47.986;11.868;2022-10-03T05:17:45;13.00;86.80
15394;DHT22;7795;47.986;11.868;2022-10-03T05:20:23;13.00;86.90
15394;DHT22;7795;47.986;11.868;2022-10-03T05:22:59;13.10;86.90
15394;DHT22;7795;47.986;11.868;2022-10-03T05:25:34;13.10;86.80
15394;DHT22;7795;47.986;11.868;2022-10-03T05:28:14;13.10;86.70
15394;DHT22;7795;47.986;11.868;2022-10-03T05:30:49;13.10;86.60
15394;DHT22;7795;47.986;11.868;2022-10-03T05:33:25;13.10;86.60
15394;DHT22;7795;47.986;11.868;2022-10-03T05:36:12;13.10;86.50
15394;DHT22;7795;47.986;11.868;2022-10-03T05:41:50;13.10;86.40
15394;DHT22;7795;47.986;11.868;2022-10-03T05:44:19;13.10;86.30
15394;DHT22;7795;47.986;11.868;2022-10-03T05:46:58;13.10;86.20
15394;DHT22;7795;47.986;11.868;2022-10-03T05:49:48;13.10;86.20
15394;DHT22;7795;47.986;11.868;2022-10-03T05:52:26;13.10;86.10
15394;DHT22;7795;47.986;11.868;2022-10-03T05:55:25;13.10;86.00
15394;DHT22;7795;47.986;11.868;2022-10-03T06:06:56;13.00;86.00
15394;DHT22;7795;47.986;11.868;2022-10-03T06:09:41;13.00;86.00
15394;DHT22;7795;47.986;11.868;2022-10-03T06:12:16;13.00;86.10
15394;DHT22;7795;47.986;11.868;2022-10-03T06:15:14;13.00;86.10
15394;DHT22;7795;47.986;11.868;2022-10-03T06:17:59;13.00;86.30
15394;DHT22;7795;47.986;11.868;2022-10-03T06:23:54;13.10;86.60
15394;DHT22;7795;47.986;11.868;2022-10-03T06:26:48;13.10;86.60
15394;DHT22;7795;47.986;11.868;2022-10-03T06:29:51;13.10;86.70
15394;DHT22;7795;47.986;11.868;2022-10-03T06:42:19;13.40;87.40
15394;DHT22;7795;47.986;11.868;2022-10-03T06:48:22;13.60;87.30
15394;DHT22;7795;47.986;11.868;2022-10-03T06:51:04;13.70;87.20
15394;DHT22;7795;47.986;11.868;2022-10-03T06:53:59;13.80;86.90
15394;DHT22;7795;47.986;11.868;2022-10-03T06:57:00;13.80;86.60
15394;DHT22;7795;47.986;11.868;2022-10-03T06:59:49;13.90;86.50
15394;DHT22;7795;47.986;11.868;2022-10-03T07:05:38;14.00;86.40
15394;DHT22;7795;47.986;11.868;2022-10-03T07:17:44;14.30;85.90
15394;DHT22;7795;47.986;11.868;2022-10-03T07:20:29;14.40;85.70
15394;DHT22;7795;47.986;11.868;2022-10-03T07:23:30;14.40;85.70
15394;DHT22;7795;47.986;11.868;2022-10-03T07:26:30;14.50;85.50
15394;DHT22;7795;47.986;11.868;2022-10-03T07:31:57;14.60;84.90
15394;DHT22;7795;47.986;11.868;2022-10-03T07:35:14;14.60;84.70
15394;DHT22;7795;47.986;11.868;2022-10-03T07:41:17;14.70;84.40
15394;DHT22;7795;47.986;11.868;2022-10-03T07:44:04;14.70;84.50
15394;DHT22;7795;47.986;11.868;2022-10-03T07:46:43;14.70;84.50
15394;DHT22;7795;47.986;11.868;2022-10-03T07:49:26;14.70;84.50
15394;DHT22;7795;47.986;11.868;2022-10-03T07:55:04;14.80;84.50
15394;DHT22;7795;47.986;11.868;2022-10-03T08:04:04;14.90;84.30
15394;DHT22;7795;47.986;11.868;2022-10-03T08:06:37;15.00;83.90
15394;DHT22;7795;47.986;11.868;2022-10-03T08:09:42;15.00;84.00
15394;DHT22;7795;47.986;11.868;2022-10-03T08:15:24;15.10;83.50
15394;DHT22;7795;47.986;11.868;2022-10-03T08:18:34;15.10;83.60
15394;DHT22;7795;47.986;11.868;2022-10-03T08:21:02;15.20;83.20
15394;DHT22;7795;47.986;11.868;2022-10-03T08:23:51;15.20;83.60
15394;DHT22;7795;47.986;11.868;2022-10-03T08:26:45;15.20;82.90
15394;DHT22;7795;47.986;11.868;2022-10-03T08:38:29;15.40;82.20
15394;DHT22;7795;47.986;11.868;2022-10-03T08:41:23;15.50;81.90
15394;DHT22;7795;47.986;11.868;2022-10-03T08:50:34;15.60;81.40
15394;DHT22;7795;47.986;11.868;2022-10-03T08:53:23;15.60;80.70
15394;DHT22;7795;47.986;11.868;2022-10-03T08:55:59;15.60;81.00
15394;DHT22;7795;47.986;11.868;2022-10-03T08:59:02;15.70;81.50
15394;DHT22;7795;47.986;11.868;2022-10-03T09:01:54;15.70;80.00
15394;DHT22;7795;47.986;11.868;2022-10-03T09:08:24;15.80;79.90
15394;DHT22;7795;47.986;11.868;2022-10-03T09:14:10;15.90;80.30
15394;DHT22;7795;47.986;11.868;2022-10-03T09:16:58;16.00;79.90
15394;DHT22;7795;47.986;11.868;2022-10-03T09:19:50;16.00;80.10
15394;DHT22;7795;47.986;11.868;2022-10-03T09:23:03;16.10;79.80
15394;DHT22;7795;47.986;11.868;2022-10-03T09:25:57;16.10;79.40
15394;DHT22;7795;47.986;11.868;2022-10-03T09:32:10;16.20;79.00
15394;DHT22;7795;47.986;11.868;2022-10-03T09:35:05;16.20;78.60
15394;DHT22;7795;47.986;11.868;2022-10-03T09:41:14;16.30;79.10
15394;DHT22;7795;47.986;11.868;2022-10-03T09:47:02;16.40;79.70
15394;DHT22;7795;47.986;11.868;2022-10-03T09:50:41;16.50;79.20
15394;DHT22;7795;47.986;11.868;2022-10-03T09:53:35;16.60;78.50
15394;DHT22;7795;47.986;11.868;2022-10-03T09:59:26;16.70;78.20
15394;DHT22;7795;47.986;11.868;2022-10-03T10:02:10;16.70;77.60
15394;DHT22;7795;47.986;11.868;2022-10-03T10:04:45;16.70;77.60
15394;DHT22;7795;47.986;11.868;2022-10-03T10:10:49;16.70;77.20
15394;DHT22;7795;47.986;11.868;2022-10-03T10:22:43;16.80;77.10
15394;DHT22;7795;47.986;11.868;2022-10-03T10:25:32;16.80;76.80
15394;DHT22;7795;47.986;11.868;2022-10-03T10:28:24;16.80;76.20
15394;DHT22;7795;47.986;11.868;2022-10-03T10:34:20;16.90;75.70
15394;DHT22;7795;47.986;11.868;2022-10-03T10:40:29;17.00;76.00
15394;DHT22;7795;47.986;11.868;2022-10-03T10:43:35;17.00;75.30
15394;DHT22;7795;47.986;11.868;2022-10-03T10:46:30;17.00;74.60
15394;DHT22;7795;47.986;11.868;2022-10-03T10:52:46;17.10;75.00
15394;DHT22;7795;47.986;11.868;2022-10-03T10:55:53;17.10;75.00
15394;DHT22;7795;47.986;11.868;2022-10-03T11:02:10;17.10;74.50
15394;DHT22;7795;47.986;11.868;2022-10-03T11:08:21;17.10;74.60
15394;DHT22;7795;47.986;11.868;2022-10-03T11:11:12;17.10;73.90
15394;DHT22;7795;47.986;11.868;2022-10-03T11:14:15;17.20;73.60
15394;DHT22;7795;47.986;11.868;2022-10-03T11:20:27;17.20;73.00
15394;DHT22;7795;47.986;11.868;2022-10-03T11:23:24;17.20;73.30
15394;DHT22;7795;47.986;11.868;2022-10-03T11:29:42;17.40;73.30
15394;DHT22;7795;47.986;11.868;2022-10-03T11:38:22;17.50;74.50
15394;DHT22;7795;47.986;11.868;2022-10-03T11:40:57;17.60;75.10
15394;DHT22;7795;47.986;11.868;2022-10-03T11:44:00;17.70;75.10
15394;DHT22;7795;47.986;11.868;2022-10-03T11:46:51;17.70;74.60
15394;DHT22;7795;47.986;11.868;2022-10-03T11:52:27;17.90;73.40
15394;DHT22;7795;47.986;11.868;2022-10-03T11:55:04;18.00;73.30
15394;DHT22;7795;47.986;11.868;2022-10-03T11:57:34;18.10;72.40
15394;DHT22;7795;47.986;11.868;2022-10-03T12:00:13;18.10;73.30
15394;DHT22;7795;47.986;11.868;2022-10-03T12:02:57;18.20;71.60
15394;DHT22;7795;47.986;11.868;2022-10-03T12:05:37;18.20;71.20
15394;DHT22;7795;47.986;11.868;2022-10-03T12:08:17;18.30;71.60
15394;DHT22;7795;47.986;11.868;2022-10-03T12:11:08;18.20;71.20
15394;DHT22;7795;47.986;11.868;2022-10-03T12:13:42;18.20;71.90
15394;DHT22;7795;47.986;11.868;2022-10-03T12:16:16;18.20;71.40
15394;DHT22;7795;47.986;11.868;2022-10-03T12:18:52;18.20;71.10
15394;DHT22;7795;47.986;11.868;2022-10-03T12:21:23;18.20;70.90
15394;DHT22;7795;47.986;11.868;2022-10-03T12:24:00;18.10;70.90
15394;DHT22;7795;47.986;11.868;2022-10-03T12:26:37;18.10;70.60
15394;DHT22;7795;47.986;11.868;2022-10-03T12:29:09;18.10;70.80
15394;DHT22;7795;47.986;11.868;2022-10-03T12:31:40;18.00;71.20
15394;DHT22;7795;47.986;11.868;2022-10-03T12:34:20;18.00;71.00
15394;DHT22;7795;47.986;11.868;2022-10-03T12:36:57;17.90;70.20
15394;DHT22;7795;47.986;11.868;2022-10-03T12:39:33;18.00;70.90
15394;DHT22;7795;47.986;11.868;2022-10-03T12:42:17;17.90;70.20
15394;DHT22;7795;47.986;11.868;2022-10-03T12:44:51;17.90;69.60
15394;DHT22;7795;47.986;11.868;2022-10-03T12:47:29;18.00;70.00
15394;DHT22;7795;47.986;11.868;2022-10-03T12:50:03;18.00;69.50
15394;DHT22;7795;47.986;11.868;2022-10-03T12:52:37;18.00;69.70
15394;DHT22;7795;47.986;11.868;2022-10-03T12:55:18;18.00;69.50
15394;DHT22;7795;47.986;11.868;2022-10-03T12:57:51;18.10;69.50
15394;DHT22;7795;47.986;11.868;2022-10-03T13:00:20;18.10;70.90
15394;DHT22;7795;47.986;11.868;2022-10-03T13:03:02;18.10;70.30
15394;DHT22;7795;47.986;11.868;2022-10-03T13:05:52;18.20;69.90
15394;DHT22;7795;47.986;11.868;2022-10-03T13:08:39;18.30;69.10
15394;DHT22;7795;47.986;11.868;2022-10-03T13:11:19;18.30;68.90
15394;DHT22;7795;47.986;11.868;2022-10-03T13:13:59;18.40;68.80
15394;DHT22;7795;47.986;11.868;2022-10-03T13:16:30;18.50;68.80
15394;DHT22;7795;47.986;11.868;2022-10-03T13:19:01;18.60;69.10
15394;DHT22;7795;47.986;11.868;2022-10-03T13:21:50;18.60;68.90
15394;DHT22;7795;47.986;11.868;2022-10-03T13:24:29;18.70;67.60
15394;DHT22;7795;47.986;11.868;2022-10-03T13:27:09;18.80;67.20
15394;DHT22;7795;47.986;11.868;2022-10-03T13:29:40;18.90;67.60
15394;DHT22;7795;47.986;11.868;2022-10-03T13:32:16;18.90;67.80
15394;DHT22;7795;47.986;11.868;2022-10-03T13:38:19;19.10;66.20
15394;DHT22;7795;47.986;11.868;2022-10-03T13:40:55;19.20;66.00
15394;DHT22;7795;47.986;11.868;2022-10-03T13:43:28;19.20;65.90
15394;DHT22;7795;47.986;11.868;2022-10-03T13:46:04;19.30;65.50
15394;DHT22;7795;47.986;11.868;2022-10-03T13:48:33;19.30;65.70
15394;DHT22;7795;47.986;11.868;2022-10-03T13:51:06;19.30;65.80
15394;DHT22;7795;47.986;11.868;2022-10-03T13:53:48;19.30;64.90
15394;DHT22;7795;47.986;11.868;2022-10-03T13:56:25;19.30;65.20
15394;DHT22;7795;47.986;11.868;2022-10-03T13:58:59;19.40;65.40
15394;DHT22;7795;47.986;11.868;2022-10-03T14:01:47;19.40;65.20
15394;DHT22;7795;47.986;11.868;2022-10-03T14:04:40;19.50;64.30
15394;DHT22;7795;47.986;11.868;2022-10-03T14:07:14;19.50;64.10
15394;DHT22;7795;47.986;11.868;2022-10-03T14:10:15;19.50;64.50
15394;DHT22;7795;47.986;11.868;2022-10-03T14:12:53;19.50;64.50
15394;DHT22;7795;47.986;11.868;2022-10-03T14:15:31;19.50;64.50
15394;DHT22;7795;47.986;11.868;2022-10-03T14:18:07;19.50;64.20
15394;DHT22;7795;47.986;11.868;2022-10-03T14:20:40;19.50;64.40
15394;DHT22;7795;47.986;11.868;2022-10-03T14:23:29;19.50;64.60
15394;DHT22;7795;47.986;11.868;2022-10-03T14:26:02;19.50;64.50
15394;DHT22;7795;47.986;11.868;2022-10-03T14:28:37;19.50;64.20
15394;DHT22;7795;47.986;11.868;2022-10-03T14:31:09;19.50;63.90
15394;DHT22;7795;47.986;11.868;2022-10-03T14:33:44;19.40;63.90
15394;DHT22;7795;47.986;11.868;2022-10-03T14:36:22;19.40;63.70
15394;DHT22;7795;47.986;11.868;2022-10-03T14:39:05;19.30;63.20
15394;DHT22;7795;47.986;11.868;2022-10-03T14:41:44;19.30;63.20
15394;DHT22;7795;47.986;11.868;2022-10-03T14:44:14;19.30;63.40
15394;DHT22;7795;47.986;11.868;2022-10-03T14:46:45;19.30;63.90
15394;DHT22;7795;47.986;11.868;2022-10-03T14:49:18;19.20;63.80
15394;DHT22;7795;47.986;11.868;2022-10-03T14:51:48;19.20;63.20
15394;DHT22;7795;47.986;11.868;2022-10-03T14:54:20;19.20;63.30
15394;DHT22;7795;47.986;11.868;2022-10-03T14:56:48;19.20;63.50
15394;DHT22;7795;47.986;11.868;2022-10-03T14:59:19;19.10;63.60
15394;DHT22;7795;47.986;11.868;2022-10-03T15:01:50;19.10;63.10
15394;DHT22;7795;47.986;11.868;2022-10-03T15:04:26;19.10;62.90
15394;DHT22;7795;47.986;11.868;2022-10-03T15:06:54;19.00;63.30
15394;DHT22;7795;47.986;11.868;2022-10-03T15:09:25;19.00;63.90
15394;DHT22;7795;47.986;11.868;2022-10-03T15:11:58;19.00;63.70
15394;DHT22;7795;47.986;11.868;2022-10-03T15:14:26;18.90;63.80
15394;DHT22;7795;47.986;11.868;2022-10-03T15:16:54;18.90;64.50
15394;DHT22;7795;47.986;11.868;2022-10-03T15:19:25;18.90;64.90
15394;DHT22;7795;47.986;11.868;2022-10-03T15:21:55;18.90;64.90
15394;DHT22;7795;47.986;11.868;2022-10-03T15:24:29;18.80;65.10
15394;DHT22;7795;47.986;11.868;2022-10-03T15:27:01;18.80;65.30
15394;DHT22;7795;47.986;11.868;2022-10-03T15:29:30;18.70;66.10
15394;DHT22;7795;47.986;11.868;2022-10-03T15:31:57;18.70;65.60
15394;DHT22;7795;47.986;11.868;2022-10-03T15:34:28;18.60;65.60
15394;DHT22;7795;47.986;11.868;2022-10-03T15:36:58;18.60;65.60
15394;DHT22;7795;47.986;11.868;2022-10-03T15:39:30;18.60;65.70
15394;DHT22;7795;47.986;11.868;2022-10-03T15:42:02;18.60;66.10
15394;DHT22;7795;47.986;11.868;2022-10-03T15:44:39;18.50;65.30
15394;DHT22;7795;47.986;11.868;2022-10-03T15:47:18;18.50;65.40
15394;DHT22;7795;47.986;11.868;2022-10-03T15:49:50;18.40;65.40
15394;DHT22;7795;47.986;11.868;2022-10-03T15:52:20;18.40;65.30
15394;DHT22;7795;47.986;11.868;2022-10-03T15:54:51;18.30;65.40
15394;DHT22;7795;47.986;11.868;2022-10-03T15:57:20;18.20;65.50
15394;DHT22;7795;47.986;11.868;2022-10-03T15:59:50;18.20;65.80
15394;DHT22;7795;47.986;11.868;2022-10-03T16:02:20;18.10;65.90
15394;DHT22;7795;47.986;11.868;2022-10-03T16:04:51;18.00;66.10
15394;DHT22;7795;47.986;11.868;2022-10-03T16:07:24;18.00;66.10
15394;DHT22;7795;47.986;11.868;2022-10-03T16:10:02;18.00;66.30
15394;DHT22;7795;47.986;11.868;2022-10-03T16:12:51;17.90;66.50
15394;DHT22;7795;47.986;11.868;2022-10-03T16:15:21;17.80;66.60
15394;DHT22;7795;47.986;11.868;2022-10-03T16:17:55;17.80;66.80
15394;DHT22;7795;47.986;11.868;2022-10-03T16:20:24;17.70;66.80
15394;DHT22;7795;47.986;11.868;2022-10-03T16:22:52;17.60;66.90
15394;DHT22;7795;47.986;11.868;2022-10-03T16:25:21;17.60;67.00
15394;DHT22;7795;47.986;11.868;2022-10-03T16:27:53;17.50;67.20
15394;DHT22;7795;47.986;11.868;2022-10-03T16:30:22;17.40;67.30
15394;DHT22;7795;47.986;11.868;2022-10-03T16:32:54;17.40;67.50
15394;DHT22;7795;47.986;11.868;2022-10-03T16:35:35;17.30;67.50
15394;DHT22;7795;47.986;11.868;2022-10-03T16:38:04;17.20;67.70
15394;DHT22;7795;47.986;11.868;2022-10-03T16:40:33;17.20;67.80
15394;DHT22;7795;47.986;11.868;2022-10-03T16:43:03;17.10;67.90
15394;DHT22;7795;47.986;11.868;2022-10-03T16:45:38;17.00;68.20
15394;DHT22;7795;47.986;11.868;2022-10-03T16:48:10;16.90;68.40
15394;DHT22;7795;47.986;11.868;2022-10-03T16:50:55;16.80;68.60
15394;DHT22;7795;47.986;11.868;2022-10-03T16:53:22;16.80;68.70
15394;DHT22;7795;47.986;11.868;2022-10-03T16:55:52;16.70;69.00
15394;DHT22;7795;47.986;11.868;2022-10-03T16:58:24;16.70;69.30
15394;DHT22;7795;47.986;11.868;2022-10-03T17:00:57;16.60;69.40
15394;DHT22;7795;47.986;11.868;2022-10-03T17:03:26;16.50;69.70
15394;DHT22;7795;47.986;11.868;2022-10-03T17:05:54;16.50;70.60
15394;DHT22;7795;47.986;11.868;2022-10-03T17:08:26;16.40;69.90
15394;DHT22;7795;47.986;11.868;2022-10-03T17:10:57;16.30;70.00
15394;DHT22;7795;47.986;11.868;2022-10-03T17:13:29;16.30;70.20
15394;DHT22;7795;47.986;11.868;2022-10-03T17:16:00;16.20;70.30
15394;DHT22;7795;47.986;11.868;2022-10-03T17:18:31;16.10;70.40
15394;DHT22;7795;47.986;11.868;2022-10-03T17:21:05;16.10;70.50
15394;DHT22;7795;47.986;11.868;2022-10-03T17:23:37;16.00;70.60
15394;DHT22;7795;47.986;11.868;2022-10-03T17:26:07;15.90;70.60
15394;DHT22;7795;47.986;11.868;2022-10-03T17:28:39;15.80;70.60
15394;DHT22;7795;47.986;11.868;2022-10-03T17:31:22;15.70;71.60
15394;DHT22;7795;47.986;11.868;2022-10-03T17:33:52;15.60;71.20
15394;DHT22;7795;47.986;11.868;2022-10-03T17:39:41;15.40;72.30
15394;DHT22;7795;47.986;11.868;2022-10-03T17:42:19;15.30;71.50
15394;DHT22;7795;47.986;11.868;2022-10-03T17:44:55;15.20;71.70
15394;DHT22;7795;47.986;11.868;2022-10-03T17:47:28;15.10;71.80
15394;DHT22;7795;47.986;11.868;2022-10-03T17:49:59;15.10;71.90
15394;DHT22;7795;47.986;11.868;2022-10-03T17:52:29;15.00;72.00
15394;DHT22;7795;47.986;11.868;2022-10-03T17:54:57;14.90;72.00
15394;DHT22;7795;47.986;11.868;2022-10-03T17:57:26;14.90;72.90
15394;DHT22;7795;47.986;11.868;2022-10-03T17:59:58;14.80;72.30
15394;DHT22;7795;47.986;11.868;2022-10-03T18:02:32;14.80;72.40
15394;DHT22;7795;47.986;11.868;2022-10-03T18:05:06;14.70;72.50
15394;DHT22;7795;47.986;11.868;2022-10-03T18:07:34;14.60;72.40
15394;DHT22;7795;47.986;11.868;2022-10-03T18:10:01;14.60;72.40
15394;DHT22;7795;47.986;11.868;2022-10-03T18:12:32;14.50;72.50
15394;DHT22;7795;47.986;11.868;2022-10-03T18:15:22;14.50;72.80
15394;DHT22;7795;47.986;11.868;2022-10-03T18:17:59;14.40;73.00
15394;DHT22;7795;47.986;11.868;2022-10-03T18:20:39;14.30;72.90
15394;DHT22;7795;47.986;11.868;2022-10-03T18:23:09;14.30;73.10
15394;DHT22;7795;47.986;11.868;2022-10-03T18:25:49;14.20;73.10
15394;DHT22;7795;47.986;11.868;2022-10-03T18:28:32;14.20;73.40
15394;DHT22;7795;47.986;11.868;2022-10-03T18:31:01;14.10;73.30
15394;DHT22;7795;47.986;11.868;2022-10-03T18:33:31;14.10;73.30
15394;DHT22;7795;47.986;11.868;2022-10-03T18:36:05;14.00;73.30
15394;DHT22;7795;47.986;11.868;2022-10-03T18:38:34;14.00;73.40
15394;DHT22;7795;47.986;11.868;2022-10-03T18:41:01;13.90;73.40
15394;DHT22;7795;47.986;11.868;2022-10-03T18:43:33;13.90;73.40
15394;DHT22;7795;47.986;11.868;2022-10-03T18:46:08;13.80;73.50
15394;DHT22;7795;47.986;11.868;2022-10-03T18:48:40;13.80;73.70
15394;DHT22;7795;47.986;11.868;2022-10-03T18:51:14;13.70;73.70
15394;DHT22;7795;47.986;11.868;2022-10-03T18:53:45;13.70;73.80
15394;DHT22;7795;47.986;11.868;2022-10-03T18:56:17;13.60;73.70
15394;DHT22;7795;47.986;11.868;2022-10-03T18:58:55;13.50;73.70
15394;DHT22;7795;47.986;11.868;2022-10-03T19:01:26;13.50;73.80
15394;DHT22;7795;47.986;11.868;2022-10-03T19:03:57;13.40;73.60
15394;DHT22;7795;47.986;11.868;2022-10-03T19:06:26;13.30;73.60
15394;DHT22;7795;47.986;11.868;2022-10-03T19:08:57;13.30;73.70
15394;DHT22;7795;47.986;11.868;2022-10-03T19:11:27;13.20;73.80
15394;DHT22;7795;47.986;11.868;2022-10-03T19:14:00;13.20;74.10
15394;DHT22;7795;47.986;11.868;2022-10-03T19:16:57;13.10;74.90
15394;DHT22;7795;47.986;11.868;2022-10-03T19:19:28;13.10;74.60
15394;DHT22;7795;47.986;11.868;2022-10-03T19:22:01;13.00;74.30
15394;DHT22;7795;47.986;11.868;2022-10-03T19:24:29;13.00;74.50
15394;DHT22;7795;47.986;11.868;2022-10-03T19:27:00;13.00;74.60
15394;DHT22;7795;47.986;11.868;2022-10-03T19:29:31;12.90;74.90
15394;DHT22;7795;47.986;11.868;2022-10-03T19:32:01;12.90;75.20
15394;DHT22;7795;47.986;11.868;2022-10-03T19:34:34;12.90;75.30
15394;DHT22;7795;47.986;11.868;2022-10-03T19:37:01;12.90;75.60
15394;DHT22;7795;47.986;11.868;2022-10-03T19:39:30;12.80;75.50